Sharon, Wisconsin
Current Conditions -  °F | °C
As of 9:45 AM on Thursday 23 Oct 2014 (Local Time) from KJVL Reporting Station
Clear Clear  
Wind Chill: 50°   Ceiling: Unl
Heat Index: 50°   Visibility: 10mi
Dew Point: 39°   Wind: 10mph
Humidity: 66%   Direction: 170°S
Pressure: 30.16"   Gusts: NA
Location:  42.5°N, 88.73°W
Report Text: KJVL 231445Z 17009KT 10SM CLR 10/04 A3016
Loading
Personal Weather Stations






























Interactive Weather Map
Tropical Storm Tracking
New forecast layout! Learn more

10-Day Weather Forecast

Advertisements
Track Severe Weather on mobile